sensor_id;sensor_type;location;lat;lon;timestamp;temperature;humidity
20125;DHT22;10223;50.862;4.360;2024-03-06T00:02:26;8.40;99.90
20125;DHT22;10223;50.862;4.360;2024-03-06T00:04:54;8.50;99.90
20125;DHT22;10223;50.862;4.360;2024-03-06T00:07:21;8.50;99.90
20125;DHT22;10223;50.862;4.360;2024-03-06T00:09:48;8.50;99.90
20125;DHT22;10223;50.862;4.360;2024-03-06T00:12:15;8.50;99.90
20125;DHT22;10223;50.862;4.360;2024-03-06T00:14:42;8.50;99.90
20125;DHT22;10223;50.862;4.360;2024-03-06T00:17:09;8.60;99.90
20125;DHT22;10223;50.862;4.360;2024-03-06T00:19:36;8.60;99.90
20125;DHT22;10223;50.862;4.360;2024-03-06T00:22:05;8.60;99.90
20125;DHT22;10223;50.862;4.360;2024-03-06T00:24:32;8.30;99.90
20125;DHT22;10223;50.862;4.360;2024-03-06T00:26:59;8.30;99.90
20125;DHT22;10223;50.862;4.360;2024-03-06T00:29:27;8.10;99.90
20125;DHT22;10223;50.862;4.360;2024-03-06T00:31:54;8.20;99.90
20125;DHT22;10223;50.862;4.360;2024-03-06T00:34:21;8.20;99.90
20125;DHT22;10223;50.862;4.360;2024-03-06T00:36:48;8.20;99.90
20125;DHT22;10223;50.862;4.360;2024-03-06T00:39:16;8.20;99.90
20125;DHT22;10223;50.862;4.360;2024-03-06T00:41:43;8.20;99.90
20125;DHT22;10223;50.862;4.360;2024-03-06T00:44:10;8.30;99.90
20125;DHT22;10223;50.862;4.360;2024-03-06T00:46:38;8.50;99.90
20125;DHT22;10223;50.862;4.360;2024-03-06T00:49:05;8.30;99.90
20125;DHT22;10223;50.862;4.360;2024-03-06T00:51:32;8.20;99.90
20125;DHT22;10223;50.862;4.360;2024-03-06T00:54:01;8.20;99.90
20125;DHT22;10223;50.862;4.360;2024-03-06T00:56:30;8.30;99.90
20125;DHT22;10223;50.862;4.360;2024-03-06T00:58:57;8.30;99.90
20125;DHT22;10223;50.862;4.360;2024-03-06T01:01:24;8.30;99.90
20125;DHT22;10223;50.862;4.360;2024-03-06T01:03:53;8.20;99.90
20125;DHT22;10223;50.862;4.360;2024-03-06T01:06:20;8.10;99.90
20125;DHT22;10223;50.862;4.360;2024-03-06T01:08:48;8.00;99.90
20125;DHT22;10223;50.862;4.360;2024-03-06T01:11:15;8.00;99.90
20125;DHT22;10223;50.862;4.360;2024-03-06T01:13:44;8.20;99.90
20125;DHT22;10223;50.862;4.360;2024-03-06T01:16:11;8.30;99.90
20125;DHT22;10223;50.862;4.360;2024-03-06T01:18:38;8.20;99.90
20125;DHT22;10223;50.862;4.360;2024-03-06T01:21:05;8.10;99.90
20125;DHT22;10223;50.862;4.360;2024-03-06T01:23:32;8.10;99.90
20125;DHT22;10223;50.862;4.360;2024-03-06T01:25:59;8.00;99.90
20125;DHT22;10223;50.862;4.360;2024-03-06T01:28:26;8.10;99.90
20125;DHT22;10223;50.862;4.360;2024-03-06T01:30:54;7.90;99.90
20125;DHT22;10223;50.862;4.360;2024-03-06T01:33:21;7.80;99.90
20125;DHT22;10223;50.862;4.360;2024-03-06T01:35:48;7.80;99.90
20125;DHT22;10223;50.862;4.360;2024-03-06T01:38:15;7.90;99.90
20125;DHT22;10223;50.862;4.360;2024-03-06T01:40:43;7.80;99.90
20125;DHT22;10223;50.862;4.360;2024-03-06T01:43:18;7.80;99.90
20125;DHT22;10223;50.862;4.360;2024-03-06T01:45:47;7.70;99.90
20125;DHT22;10223;50.862;4.360;2024-03-06T01:48:15;7.90;99.90
20125;DHT22;10223;50.862;4.360;2024-03-06T01:50:43;7.90;99.90
20125;DHT22;10223;50.862;4.360;2024-03-06T01:53:10;7.80;99.90
20125;DHT22;10223;50.862;4.360;2024-03-06T01:55:38;8.00;99.90
20125;DHT22;10223;50.862;4.360;2024-03-06T01:58:06;7.90;99.90
20125;DHT22;10223;50.862;4.360;2024-03-06T02:00:33;7.80;99.90
20125;DHT22;10223;50.862;4.360;2024-03-06T02:03:01;7.70;99.90
20125;DHT22;10223;50.862;4.360;2024-03-06T02:05:30;7.70;99.90
20125;DHT22;10223;50.862;4.360;2024-03-06T02:07:58;7.60;99.90
20125;DHT22;10223;50.862;4.360;2024-03-06T02:10:25;7.70;99.90
20125;DHT22;10223;50.862;4.360;2024-03-06T02:12:53;7.90;99.90
20125;DHT22;10223;50.862;4.360;2024-03-06T02:15:20;7.70;99.90
20125;DHT22;10223;50.862;4.360;2024-03-06T02:17:47;7.70;99.90
20125;DHT22;10223;50.862;4.360;2024-03-06T02:20:14;7.70;99.90
20125;DHT22;10223;50.862;4.360;2024-03-06T02:22:43;7.60;99.90
20125;DHT22;10223;50.862;4.360;2024-03-06T02:25:11;7.70;99.90
20125;DHT22;10223;50.862;4.360;2024-03-06T02:27:38;7.70;99.90
20125;DHT22;10223;50.862;4.360;2024-03-06T02:30:06;7.60;99.90
20125;DHT22;10223;50.862;4.360;2024-03-06T02:32:33;7.60;99.90
20125;DHT22;10223;50.862;4.360;2024-03-06T02:35:01;7.60;99.90
20125;DHT22;10223;50.862;4.360;2024-03-06T02:37:29;7.60;99.90
20125;DHT22;10223;50.862;4.360;2024-03-06T02:39:57;7.60;99.90
20125;DHT22;10223;50.862;4.360;2024-03-06T02:42:26;7.50;99.90
20125;DHT22;10223;50.862;4.360;2024-03-06T02:44:53;7.50;99.90
20125;DHT22;10223;50.862;4.360;2024-03-06T02:47:20;7.50;99.90
20125;DHT22;10223;50.862;4.360;2024-03-06T02:49:47;7.70;99.90
20125;DHT22;10223;50.862;4.360;2024-03-06T02:52:14;7.60;99.90
20125;DHT22;10223;50.862;4.360;2024-03-06T02:54:41;7.60;99.90
20125;DHT22;10223;50.862;4.360;2024-03-06T02:57:10;7.60;99.90
20125;DHT22;10223;50.862;4.360;2024-03-06T02:59:39;7.60;99.90
20125;DHT22;10223;50.862;4.360;2024-03-06T03:02:06;7.60;99.90
20125;DHT22;10223;50.862;4.360;2024-03-06T03:04:33;7.60;99.90
20125;DHT22;10223;50.862;4.360;2024-03-06T03:07:00;7.50;99.90
20125;DHT22;10223;50.862;4.360;2024-03-06T03:09:27;7.70;99.90
20125;DHT22;10223;50.862;4.360;2024-03-06T03:11:55;7.60;99.90
20125;DHT22;10223;50.862;4.360;2024-03-06T03:14:24;7.50;99.90
20125;DHT22;10223;50.862;4.360;2024-03-06T03:16:51;7.50;99.90
20125;DHT22;10223;50.862;4.360;2024-03-06T03:19:19;7.50;99.90
20125;DHT22;10223;50.862;4.360;2024-03-06T03:21:46;7.70;99.90
20125;DHT22;10223;50.862;4.360;2024-03-06T03:24:13;7.60;99.90
20125;DHT22;10223;50.862;4.360;2024-03-06T03:26:40;7.70;99.90
20125;DHT22;10223;50.862;4.360;2024-03-06T03:29:07;7.60;99.90
20125;DHT22;10223;50.862;4.360;2024-03-06T03:31:36;7.60;99.90
20125;DHT22;10223;50.862;4.360;2024-03-06T03:34:04;7.50;99.90
20125;DHT22;10223;50.862;4.360;2024-03-06T03:36:31;7.60;99.90
20125;DHT22;10223;50.862;4.360;2024-03-06T03:38:58;7.50;99.90
20125;DHT22;10223;50.862;4.360;2024-03-06T03:41:25;7.40;99.90
20125;DHT22;10223;50.862;4.360;2024-03-06T03:43:52;7.40;99.90
20125;DHT22;10223;50.862;4.360;2024-03-06T03:46:19;7.50;99.90
20125;DHT22;10223;50.862;4.360;2024-03-06T03:48:51;7.40;99.90
20125;DHT22;10223;50.862;4.360;2024-03-06T03:51:18;7.40;99.90
20125;DHT22;10223;50.862;4.360;2024-03-06T03:53:45;7.40;99.90
20125;DHT22;10223;50.862;4.360;2024-03-06T03:56:16;7.40;99.90
20125;DHT22;10223;50.862;4.360;2024-03-06T03:58:43;7.60;99.90
20125;DHT22;10223;50.862;4.360;2024-03-06T04:01:11;7.70;99.90
20125;DHT22;10223;50.862;4.360;2024-03-06T04:03:38;7.60;99.90
20125;DHT22;10223;50.862;4.360;2024-03-06T04:06:07;7.60;99.90
20125;DHT22;10223;50.862;4.360;2024-03-06T04:08:34;7.70;99.90
20125;DHT22;10223;50.862;4.360;2024-03-06T04:11:03;7.80;99.90
20125;DHT22;10223;50.862;4.360;2024-03-06T04:13:30;7.80;99.90
20125;DHT22;10223;50.862;4.360;2024-03-06T04:15:57;7.70;99.90
20125;DHT22;10223;50.862;4.360;2024-03-06T04:18:24;7.70;99.90
20125;DHT22;10223;50.862;4.360;2024-03-06T04:20:52;7.60;99.90
20125;DHT22;10223;50.862;4.360;2024-03-06T04:23:20;7.70;99.90
20125;DHT22;10223;50.862;4.360;2024-03-06T04:25:47;7.60;99.90
20125;DHT22;10223;50.862;4.360;2024-03-06T04:28:14;7.60;99.90
20125;DHT22;10223;50.862;4.360;2024-03-06T04:30:41;7.70;99.90
20125;DHT22;10223;50.862;4.360;2024-03-06T04:33:08;7.80;99.90
20125;DHT22;10223;50.862;4.360;2024-03-06T04:35:39;7.70;99.90
20125;DHT22;10223;50.862;4.360;2024-03-06T04:38:06;7.60;99.90
20125;DHT22;10223;50.862;4.360;2024-03-06T04:40:34;7.40;99.90
20125;DHT22;10223;50.862;4.360;2024-03-06T04:43:02;7.50;99.90
20125;DHT22;10223;50.862;4.360;2024-03-06T04:45:29;7.50;99.90
20125;DHT22;10223;50.862;4.360;2024-03-06T04:47:55;7.30;99.90
20125;DHT22;10223;50.862;4.360;2024-03-06T04:50:22;7.40;99.90
20125;DHT22;10223;50.862;4.360;2024-03-06T04:52:49;7.40;99.90
20125;DHT22;10223;50.862;4.360;2024-03-06T04:55:16;7.40;99.90
20125;DHT22;10223;50.862;4.360;2024-03-06T04:57:49;7.30;99.90
20125;DHT22;10223;50.862;4.360;2024-03-06T05:00:16;7.50;99.90
20125;DHT22;10223;50.862;4.360;2024-03-06T05:02:44;7.40;99.90
20125;DHT22;10223;50.862;4.360;2024-03-06T05:05:11;7.50;99.90
20125;DHT22;10223;50.862;4.360;2024-03-06T05:07:38;7.40;99.90
20125;DHT22;10223;50.862;4.360;2024-03-06T05:10:06;7.40;99.90
20125;DHT22;10223;50.862;4.360;2024-03-06T05:12:34;7.40;99.90
20125;DHT22;10223;50.862;4.360;2024-03-06T05:15:03;7.40;99.90
20125;DHT22;10223;50.862;4.360;2024-03-06T05:17:31;7.40;99.90
20125;DHT22;10223;50.862;4.360;2024-03-06T05:19:58;7.30;99.90
20125;DHT22;10223;50.862;4.360;2024-03-06T05:22:25;7.30;99.90
20125;DHT22;10223;50.862;4.360;2024-03-06T05:24:52;7.40;99.90
20125;DHT22;10223;50.862;4.360;2024-03-06T05:27:19;7.40;99.90
20125;DHT22;10223;50.862;4.360;2024-03-06T05:29:46;7.50;99.90
20125;DHT22;10223;50.862;4.360;2024-03-06T05:32:15;7.60;99.90
20125;DHT22;10223;50.862;4.360;2024-03-06T05:34:42;7.50;99.90
20125;DHT22;10223;50.862;4.360;2024-03-06T05:37:11;7.50;99.90
20125;DHT22;10223;50.862;4.360;2024-03-06T05:39:38;7.50;99.90
20125;DHT22;10223;50.862;4.360;2024-03-06T05:42:06;7.50;99.90
20125;DHT22;10223;50.862;4.360;2024-03-06T05:44:34;7.50;99.90
20125;DHT22;10223;50.862;4.360;2024-03-06T05:47:02;7.40;99.90
20125;DHT22;10223;50.862;4.360;2024-03-06T05:49:30;7.40;99.90
20125;DHT22;10223;50.862;4.360;2024-03-06T05:51:58;7.40;99.90
20125;DHT22;10223;50.862;4.360;2024-03-06T05:54:25;7.40;99.90
20125;DHT22;10223;50.862;4.360;2024-03-06T05:56:53;7.70;99.90
20125;DHT22;10223;50.862;4.360;2024-03-06T05:59:20;7.60;99.90
20125;DHT22;10223;50.862;4.360;2024-03-06T06:01:48;7.50;99.90
20125;DHT22;10223;50.862;4.360;2024-03-06T06:04:15;7.40;99.90
20125;DHT22;10223;50.862;4.360;2024-03-06T06:06:43;7.40;99.90
20125;DHT22;10223;50.862;4.360;2024-03-06T06:09:10;7.40;99.90
20125;DHT22;10223;50.862;4.360;2024-03-06T06:11:41;7.40;99.90
20125;DHT22;10223;50.862;4.360;2024-03-06T06:14:08;7.40;99.90
20125;DHT22;10223;50.862;4.360;2024-03-06T06:16:37;7.40;99.90
20125;DHT22;10223;50.862;4.360;2024-03-06T06:19:04;7.50;99.90
20125;DHT22;10223;50.862;4.360;2024-03-06T06:21:32;7.50;99.90
20125;DHT22;10223;50.862;4.360;2024-03-06T06:24:02;7.60;99.90
20125;DHT22;10223;50.862;4.360;2024-03-06T06:26:30;7.80;99.90
20125;DHT22;10223;50.862;4.360;2024-03-06T06:28:58;8.10;99.90
20125;DHT22;10223;50.862;4.360;2024-03-06T06:31:25;7.90;99.90
20125;DHT22;10223;50.862;4.360;2024-03-06T06:33:53;7.80;99.90
20125;DHT22;10223;50.862;4.360;2024-03-06T06:36:20;7.70;99.90
20125;DHT22;10223;50.862;4.360;2024-03-06T06:38:47;7.70;99.90
20125;DHT22;10223;50.862;4.360;2024-03-06T06:41:17;7.70;99.90
20125;DHT22;10223;50.862;4.360;2024-03-06T06:43:44;7.70;99.90
20125;DHT22;10223;50.862;4.360;2024-03-06T06:46:12;7.70;99.90
20125;DHT22;10223;50.862;4.360;2024-03-06T06:48:39;7.60;99.90
20125;DHT22;10223;50.862;4.360;2024-03-06T06:51:06;7.70;99.90
20125;DHT22;10223;50.862;4.360;2024-03-06T06:53:33;7.60;99.90
20125;DHT22;10223;50.862;4.360;2024-03-06T06:56:00;7.70;99.90
20125;DHT22;10223;50.862;4.360;2024-03-06T06:58:28;7.80;99.90
20125;DHT22;10223;50.862;4.360;2024-03-06T07:00:55;7.80;99.90
20125;DHT22;10223;50.862;4.360;2024-03-06T07:03:22;7.90;99.90
20125;DHT22;10223;50.862;4.360;2024-03-06T07:05:55;7.90;99.90
20125;DHT22;10223;50.862;4.360;2024-03-06T07:08:22;7.90;99.90
20125;DHT22;10223;50.862;4.360;2024-03-06T07:10:49;7.80;99.90
20125;DHT22;10223;50.862;4.360;2024-03-06T07:13:18;7.80;99.90
20125;DHT22;10223;50.862;4.360;2024-03-06T07:15:47;7.70;99.90
20125;DHT22;10223;50.862;4.360;2024-03-06T07:18:14;7.80;99.90
20125;DHT22;10223;50.862;4.360;2024-03-06T07:20:41;8.00;99.90
20125;DHT22;10223;50.862;4.360;2024-03-06T07:23:08;8.00;99.90
20125;DHT22;10223;50.862;4.360;2024-03-06T07:25:35;8.10;99.90
20125;DHT22;10223;50.862;4.360;2024-03-06T07:28:02;8.20;99.90
20125;DHT22;10223;50.862;4.360;2024-03-06T07:30:29;8.20;99.90
20125;DHT22;10223;50.862;4.360;2024-03-06T07:32:58;8.30;99.90
20125;DHT22;10223;50.862;4.360;2024-03-06T07:35:25;8.20;99.90
20125;DHT22;10223;50.862;4.360;2024-03-06T07:37:52;8.30;99.90
20125;DHT22;10223;50.862;4.360;2024-03-06T07:40:19;8.50;99.90
20125;DHT22;10223;50.862;4.360;2024-03-06T07:42:46;8.70;99.90
20125;DHT22;10223;50.862;4.360;2024-03-06T07:45:14;9.20;99.90
20125;DHT22;10223;50.862;4.360;2024-03-06T07:47:41;9.70;99.90
20125;DHT22;10223;50.862;4.360;2024-03-06T07:50:10;10.10;99.90
20125;DHT22;10223;50.862;4.360;2024-03-06T07:52:38;10.20;99.90
20125;DHT22;10223;50.862;4.360;2024-03-06T07:55:05;10.50;99.90
20125;DHT22;10223;50.862;4.360;2024-03-06T07:57:32;10.30;99.90
20125;DHT22;10223;50.862;4.360;2024-03-06T07:59:59;10.60;99.90
20125;DHT22;10223;50.862;4.360;2024-03-06T08:02:26;10.90;99.90
20125;DHT22;10223;50.862;4.360;2024-03-06T08:04:53;11.00;99.90
20125;DHT22;10223;50.862;4.360;2024-03-06T08:07:22;11.10;99.90
20125;DHT22;10223;50.862;4.360;2024-03-06T08:09:49;11.20;99.90
20125;DHT22;10223;50.862;4.360;2024-03-06T08:12:16;11.40;99.90
20125;DHT22;10223;50.862;4.360;2024-03-06T08:14:43;11.80;99.90
20125;DHT22;10223;50.862;4.360;2024-03-06T08:17:10;11.70;99.90
20125;DHT22;10223;50.862;4.360;2024-03-06T08:19:37;12.00;99.90
20125;DHT22;10223;50.862;4.360;2024-03-06T08:22:04;12.20;99.90
20125;DHT22;10223;50.862;4.360;2024-03-06T08:24:33;11.80;99.90
20125;DHT22;10223;50.862;4.360;2024-03-06T08:27:00;11.60;99.90
20125;DHT22;10223;50.862;4.360;2024-03-06T08:29:27;11.30;99.90
20125;DHT22;10223;50.862;4.360;2024-03-06T08:31:54;11.40;99.90
20125;DHT22;10223;50.862;4.360;2024-03-06T08:34:23;12.00;99.90
20125;DHT22;10223;50.862;4.360;2024-03-06T08:36:50;11.90;99.90
20125;DHT22;10223;50.862;4.360;2024-03-06T08:39:18;11.70;99.90
20125;DHT22;10223;50.862;4.360;2024-03-06T08:41:47;11.70;99.90
20125;DHT22;10223;50.862;4.360;2024-03-06T08:44:14;11.70;99.90
20125;DHT22;10223;50.862;4.360;2024-03-06T08:46:41;11.40;99.90
20125;DHT22;10223;50.862;4.360;2024-03-06T08:49:08;11.80;99.90
20125;DHT22;10223;50.862;4.360;2024-03-06T08:51:36;11.90;99.90
20125;DHT22;10223;50.862;4.360;2024-03-06T08:54:03;11.70;99.90
20125;DHT22;10223;50.862;4.360;2024-03-06T08:56:30;11.80;99.90
20125;DHT22;10223;50.862;4.360;2024-03-06T08:59:01;12.00;99.90
20125;DHT22;10223;50.862;4.360;2024-03-06T09:01:30;12.10;99.90
20125;DHT22;10223;50.862;4.360;2024-03-06T09:03:57;12.10;99.90
20125;DHT22;10223;50.862;4.360;2024-03-06T09:06:24;12.10;99.90
20125;DHT22;10223;50.862;4.360;2024-03-06T09:08:52;12.30;99.90
20125;DHT22;10223;50.862;4.360;2024-03-06T09:11:19;12.30;99.90
20125;DHT22;10223;50.862;4.360;2024-03-06T09:13:48;12.60;99.90
20125;DHT22;10223;50.862;4.360;2024-03-06T09:16:16;12.60;99.90
20125;DHT22;10223;50.862;4.360;2024-03-06T09:18:43;12.60;99.90
20125;DHT22;10223;50.862;4.360;2024-03-06T09:21:10;12.70;99.90
20125;DHT22;10223;50.862;4.360;2024-03-06T09:23:37;12.50;99.90
20125;DHT22;10223;50.862;4.360;2024-03-06T09:26:04;12.50;99.90
20125;DHT22;10223;50.862;4.360;2024-03-06T09:28:32;12.70;99.90
20125;DHT22;10223;50.862;4.360;2024-03-06T09:30:59;12.50;99.90
20125;DHT22;10223;50.862;4.360;2024-03-06T09:33:28;13.00;99.90
20125;DHT22;10223;50.862;4.360;2024-03-06T09:35:55;13.10;99.90
20125;DHT22;10223;50.862;4.360;2024-03-06T09:38:23;13.10;99.90
20125;DHT22;10223;50.862;4.360;2024-03-06T09:40:50;13.30;99.90
20125;DHT22;10223;50.862;4.360;2024-03-06T09:43:18;13.40;99.90
20125;DHT22;10223;50.862;4.360;2024-03-06T09:45:48;13.00;99.90
20125;DHT22;10223;50.862;4.360;2024-03-06T09:48:16;13.30;99.90
20125;DHT22;10223;50.862;4.360;2024-03-06T09:50:49;13.70;99.90
20125;DHT22;10223;50.862;4.360;2024-03-06T09:53:18;13.80;99.90
20125;DHT22;10223;50.862;4.360;2024-03-06T09:55:48;13.70;99.90
20125;DHT22;10223;50.862;4.360;2024-03-06T09:58:16;14.10;99.90
20125;DHT22;10223;50.862;4.360;2024-03-06T10:00:43;14.30;99.90
20125;DHT22;10223;50.862;4.360;2024-03-06T10:03:13;14.30;99.90
20125;DHT22;10223;50.862;4.360;2024-03-06T10:05:41;14.80;99.90
20125;DHT22;10223;50.862;4.360;2024-03-06T10:08:10;15.50;99.90
20125;DHT22;10223;50.862;4.360;2024-03-06T10:10:37;15.80;99.90
20125;DHT22;10223;50.862;4.360;2024-03-06T10:13:04;15.40;99.90
20125;DHT22;10223;50.862;4.360;2024-03-06T10:15:32;15.30;99.90
20125;DHT22;10223;50.862;4.360;2024-03-06T10:18:11;14.70;99.90
20125;DHT22;10223;50.862;4.360;2024-03-06T10:20:39;14.80;99.90
20125;DHT22;10223;50.862;4.360;2024-03-06T10:23:12;14.40;99.90
20125;DHT22;10223;50.862;4.360;2024-03-06T10:25:39;14.40;99.90
20125;DHT22;10223;50.862;4.360;2024-03-06T10:28:08;14.40;99.90
20125;DHT22;10223;50.862;4.360;2024-03-06T10:30:37;15.00;99.90
20125;DHT22;10223;50.862;4.360;2024-03-06T10:33:07;15.00;99.90
20125;DHT22;10223;50.862;4.360;2024-03-06T10:35:35;14.80;99.90
20125;DHT22;10223;50.862;4.360;2024-03-06T10:38:04;15.00;99.90
20125;DHT22;10223;50.862;4.360;2024-03-06T10:40:34;15.00;99.90
20125;DHT22;10223;50.862;4.360;2024-03-06T10:43:02;14.90;99.90
20125;DHT22;10223;50.862;4.360;2024-03-06T10:45:38;14.60;99.90
20125;DHT22;10223;50.862;4.360;2024-03-06T10:48:07;14.50;99.90
20125;DHT22;10223;50.862;4.360;2024-03-06T10:50:38;14.10;99.90
20125;DHT22;10223;50.862;4.360;2024-03-06T10:53:08;14.10;99.90
20125;DHT22;10223;50.862;4.360;2024-03-06T10:55:37;14.60;99.90
20125;DHT22;10223;50.862;4.360;2024-03-06T10:58:05;14.50;99.90
20125;DHT22;10223;50.862;4.360;2024-03-06T11:00:36;14.20;99.90
20125;DHT22;10223;50.862;4.360;2024-03-06T11:03:05;14.00;99.90
20125;DHT22;10223;50.862;4.360;2024-03-06T11:05:35;14.10;99.90
20125;DHT22;10223;50.862;4.360;2024-03-06T11:08:03;14.30;99.90
20125;DHT22;10223;50.862;4.360;2024-03-06T11:10:32;14.80;99.90
20125;DHT22;10223;50.862;4.360;2024-03-06T11:13:00;14.90;99.90
20125;DHT22;10223;50.862;4.360;2024-03-06T11:15:28;14.30;99.90
20125;DHT22;10223;50.862;4.360;2024-03-06T11:17:55;13.90;99.90
20125;DHT22;10223;50.862;4.360;2024-03-06T11:20:23;13.60;99.90
20125;DHT22;10223;50.862;4.360;2024-03-06T11:23:11;13.50;99.90
20125;DHT22;10223;50.862;4.360;2024-03-06T11:26:01;13.50;99.90
20125;DHT22;10223;50.862;4.360;2024-03-06T11:28:32;13.40;99.90
20125;DHT22;10223;50.862;4.360;2024-03-06T11:31:00;13.60;99.90
20125;DHT22;10223;50.862;4.360;2024-03-06T11:33:37;13.80;99.90
20125;DHT22;10223;50.862;4.360;2024-03-06T11:36:20;13.90;99.90
20125;DHT22;10223;50.862;4.360;2024-03-06T11:38:51;14.40;99.90
20125;DHT22;10223;50.862;4.360;2024-03-06T11:41:20;14.60;99.90
20125;DHT22;10223;50.862;4.360;2024-03-06T11:43:50;15.10;99.90
20125;DHT22;10223;50.862;4.360;2024-03-06T11:46:19;15.70;99.90
20125;DHT22;10223;50.862;4.360;2024-03-06T11:48:52;15.60;99.90
20125;DHT22;10223;50.862;4.360;2024-03-06T11:51:20;15.70;99.90
20125;DHT22;10223;50.862;4.360;2024-03-06T11:53:50;15.70;99.90
20125;DHT22;10223;50.862;4.360;2024-03-06T11:56:19;15.30;99.90
20125;DHT22;10223;50.862;4.360;2024-03-06T11:58:49;14.90;99.90
20125;DHT22;10223;50.862;4.360;2024-03-06T12:01:16;14.80;99.90
20125;DHT22;10223;50.862;4.360;2024-03-06T12:03:43;14.60;99.90
20125;DHT22;10223;50.862;4.360;2024-03-06T12:06:11;14.40;99.90
20125;DHT22;10223;50.862;4.360;2024-03-06T12:08:39;13.90;99.90
20125;DHT22;10223;50.862;4.360;2024-03-06T12:11:07;13.70;99.90
20125;DHT22;10223;50.862;4.360;2024-03-06T12:13:34;13.60;99.90
20125;DHT22;10223;50.862;4.360;2024-03-06T12:16:07;13.90;99.90
20125;DHT22;10223;50.862;4.360;2024-03-06T12:18:34;14.00;99.90
20125;DHT22;10223;50.862;4.360;2024-03-06T12:21:02;13.80;99.90
20125;DHT22;10223;50.862;4.360;2024-03-06T12:23:29;14.10;99.90
20125;DHT22;10223;50.862;4.360;2024-03-06T12:26:07;14.40;99.90
20125;DHT22;10223;50.862;4.360;2024-03-06T12:28:34;14.10;99.90
20125;DHT22;10223;50.862;4.360;2024-03-06T12:31:02;14.00;99.90
20125;DHT22;10223;50.862;4.360;2024-03-06T12:33:31;14.20;99.90
20125;DHT22;10223;50.862;4.360;2024-03-06T12:36:03;14.20;99.90
20125;DHT22;10223;50.862;4.360;2024-03-06T12:38:33;13.80;99.90
20125;DHT22;10223;50.862;4.360;2024-03-06T12:41:00;13.40;99.90
20125;DHT22;10223;50.862;4.360;2024-03-06T12:43:27;13.20;99.90
20125;DHT22;10223;50.862;4.360;2024-03-06T12:45:55;13.20;99.90
20125;DHT22;10223;50.862;4.360;2024-03-06T12:48:23;13.50;99.90
20125;DHT22;10223;50.862;4.360;2024-03-06T12:50:52;13.80;99.90
20125;DHT22;10223;50.862;4.360;2024-03-06T12:53:21;14.00;99.90
20125;DHT22;10223;50.862;4.360;2024-03-06T12:55:48;13.90;99.90
20125;DHT22;10223;50.862;4.360;2024-03-06T12:58:15;13.90;99.90
20125;DHT22;10223;50.862;4.360;2024-03-06T13:00:42;13.90;99.90
20125;DHT22;10223;50.862;4.360;2024-03-06T13:03:09;13.70;99.90
20125;DHT22;10223;50.862;4.360;2024-03-06T13:05:37;13.60;99.90
20125;DHT22;10223;50.862;4.360;2024-03-06T13:08:05;13.50;99.90
20125;DHT22;10223;50.862;4.360;2024-03-06T13:10:32;13.50;99.90
20125;DHT22;10223;50.862;4.360;2024-03-06T13:13:01;13.50;99.90
20125;DHT22;10223;50.862;4.360;2024-03-06T13:15:28;13.70;99.90
20125;DHT22;10223;50.862;4.360;2024-03-06T13:17:55;13.50;99.90
20125;DHT22;10223;50.862;4.360;2024-03-06T13:20:22;13.50;99.90
20125;DHT22;10223;50.862;4.360;2024-03-06T13:22:49;13.50;99.90
20125;DHT22;10223;50.862;4.360;2024-03-06T13:25:18;13.50;99.90
20125;DHT22;10223;50.862;4.360;2024-03-06T13:27:45;13.60;99.90
20125;DHT22;10223;50.862;4.360;2024-03-06T13:30:12;13.40;99.90
20125;DHT22;10223;50.862;4.360;2024-03-06T13:32:39;13.40;99.90
20125;DHT22;10223;50.862;4.360;2024-03-06T13:35:08;13.50;99.90
20125;DHT22;10223;50.862;4.360;2024-03-06T13:37:37;13.60;99.90
20125;DHT22;10223;50.862;4.360;2024-03-06T13:40:06;13.90;99.90
20125;DHT22;10223;50.862;4.360;2024-03-06T13:42:38;14.20;99.90
20125;DHT22;10223;50.862;4.360;2024-03-06T13:45:06;14.30;99.90
20125;DHT22;10223;50.862;4.360;2024-03-06T13:47:37;14.20;99.90
20125;DHT22;10223;50.862;4.360;2024-03-06T13:50:05;14.30;99.90
20125;DHT22;10223;50.862;4.360;2024-03-06T13:52:34;14.30;99.90
20125;DHT22;10223;50.862;4.360;2024-03-06T13:55:03;15.10;99.90
20125;DHT22;10223;50.862;4.360;2024-03-06T13:57:31;15.70;99.90
20125;DHT22;10223;50.862;4.360;2024-03-06T14:00:02;15.80;99.90
20125;DHT22;10223;50.862;4.360;2024-03-06T14:02:30;15.90;99.90
20125;DHT22;10223;50.862;4.360;2024-03-06T14:04:58;16.10;99.90
20125;DHT22;10223;50.862;4.360;2024-03-06T14:07:25;16.20;99.90
20125;DHT22;10223;50.862;4.360;2024-03-06T14:09:52;15.90;99.90
20125;DHT22;10223;50.862;4.360;2024-03-06T14:12:22;15.90;99.90
20125;DHT22;10223;50.862;4.360;2024-03-06T14:14:49;15.90;99.90
20125;DHT22;10223;50.862;4.360;2024-03-06T14:17:18;16.60;99.90
20125;DHT22;10223;50.862;4.360;2024-03-06T14:19:45;17.10;99.90
20125;DHT22;10223;50.862;4.360;2024-03-06T14:22:12;16.40;99.90
20125;DHT22;10223;50.862;4.360;2024-03-06T14:24:39;15.70;99.90
20125;DHT22;10223;50.862;4.360;2024-03-06T14:27:07;15.70;99.90
20125;DHT22;10223;50.862;4.360;2024-03-06T14:29:34;15.40;99.90
20125;DHT22;10223;50.862;4.360;2024-03-06T14:32:01;15.20;99.90
20125;DHT22;10223;50.862;4.360;2024-03-06T14:34:29;14.70;99.90
20125;DHT22;10223;50.862;4.360;2024-03-06T14:36:57;14.20;99.90
20125;DHT22;10223;50.862;4.360;2024-03-06T14:39:24;14.20;99.90
20125;DHT22;10223;50.862;4.360;2024-03-06T14:41:51;14.40;99.90
20125;DHT22;10223;50.862;4.360;2024-03-06T14:44:18;14.30;99.90
20125;DHT22;10223;50.862;4.360;2024-03-06T14:46:46;13.70;99.90
20125;DHT22;10223;50.862;4.360;2024-03-06T14:49:13;13.50;99.90
20125;DHT22;10223;50.862;4.360;2024-03-06T14:51:44;13.70;99.90
20125;DHT22;10223;50.862;4.360;2024-03-06T14:54:11;13.80;99.90
20125;DHT22;10223;50.862;4.360;2024-03-06T14:56:38;14.00;99.90
20125;DHT22;10223;50.862;4.360;2024-03-06T14:59:05;14.20;99.90
20125;DHT22;10223;50.862;4.360;2024-03-06T15:01:32;14.20;99.90
20125;DHT22;10223;50.862;4.360;2024-03-06T15:03:59;14.30;99.90
20125;DHT22;10223;50.862;4.360;2024-03-06T15:06:27;14.30;99.90
20125;DHT22;10223;50.862;4.360;2024-03-06T15:08:55;14.50;99.90
20125;DHT22;10223;50.862;4.360;2024-03-06T15:11:22;14.50;99.90
20125;DHT22;10223;50.862;4.360;2024-03-06T15:13:50;14.60;99.90
20125;DHT22;10223;50.862;4.360;2024-03-06T15:16:17;14.70;99.90
20125;DHT22;10223;50.862;4.360;2024-03-06T15:18:44;14.70;99.90
20125;DHT22;10223;50.862;4.360;2024-03-06T15:21:12;14.90;99.90
20125;DHT22;10223;50.862;4.360;2024-03-06T15:23:39;15.20;99.90
20125;DHT22;10223;50.862;4.360;2024-03-06T15:26:08;15.20;99.90
20125;DHT22;10223;50.862;4.360;2024-03-06T15:28:35;15.40;99.90
20125;DHT22;10223;50.862;4.360;2024-03-06T15:31:02;15.40;99.90
20125;DHT22;10223;50.862;4.360;2024-03-06T15:33:29;15.00;99.90
20125;DHT22;10223;50.862;4.360;2024-03-06T15:35:57;14.80;99.90
20125;DHT22;10223;50.862;4.360;2024-03-06T15:38:25;15.10;99.90
20125;DHT22;10223;50.862;4.360;2024-03-06T15:40:52;15.10;99.90
20125;DHT22;10223;50.862;4.360;2024-03-06T15:43:21;15.00;99.90